sensor_id;sensor_type;location;lat;lon;timestamp;temperature;humidity
24402;DHT22;12539;48.808;11.292;2022-07-22T00:00:27;25.00;62.10
24402;DHT22;12539;48.808;11.292;2022-07-22T00:02:53;25.00;62.00
24402;DHT22;12539;48.808;11.292;2022-07-22T00:05:19;24.90;61.70
24402;DHT22;12539;48.808;11.292;2022-07-22T00:07:44;24.90;61.80
24402;DHT22;12539;48.808;11.292;2022-07-22T00:10:10;24.90;62.10
24402;DHT22;12539;48.808;11.292;2022-07-22T00:12:37;24.80;62.40
24402;DHT22;12539;48.808;11.292;2022-07-22T00:15:04;24.80;62.70
24402;DHT22;12539;48.808;11.292;2022-07-22T00:17:30;24.80;62.80
24402;DHT22;12539;48.808;11.292;2022-07-22T00:19:56;24.80;62.90
24402;DHT22;12539;48.808;11.292;2022-07-22T00:22:22;24.70;62.90
24402;DHT22;12539;48.808;11.292;2022-07-22T00:24:47;24.70;62.90
24402;DHT22;12539;48.808;11.292;2022-07-22T00:27:13;24.70;62.90
24402;DHT22;12539;48.808;11.292;2022-07-22T00:29:39;24.70;63.00
24402;DHT22;12539;48.808;11.292;2022-07-22T00:32:05;24.70;63.10
24402;DHT22;12539;48.808;11.292;2022-07-22T00:34:30;24.60;63.10
24402;DHT22;12539;48.808;11.292;2022-07-22T00:36:56;24.60;63.30
24402;DHT22;12539;48.808;11.292;2022-07-22T00:39:22;24.50;63.30
24402;DHT22;12539;48.808;11.292;2022-07-22T00:41:48;24.50;63.30
24402;DHT22;12539;48.808;11.292;2022-07-22T00:44:14;24.60;63.50
24402;DHT22;12539;48.808;11.292;2022-07-22T00:46:40;24.60;63.50
24402;DHT22;12539;48.808;11.292;2022-07-22T00:49:07;24.60;63.50
24402;DHT22;12539;48.808;11.292;2022-07-22T00:51:34;24.50;63.50
24402;DHT22;12539;48.808;11.292;2022-07-22T00:54:00;24.50;63.10
24402;DHT22;12539;48.808;11.292;2022-07-22T00:56:28;24.40;63.10
24402;DHT22;12539;48.808;11.292;2022-07-22T00:58:56;24.40;63.40
24402;DHT22;12539;48.808;11.292;2022-07-22T01:01:22;24.40;63.50
24402;DHT22;12539;48.808;11.292;2022-07-22T01:03:48;24.40;63.80
24402;DHT22;12539;48.808;11.292;2022-07-22T01:06:14;24.40;64.00
24402;DHT22;12539;48.808;11.292;2022-07-22T01:08:40;24.30;64.50
24402;DHT22;12539;48.808;11.292;2022-07-22T01:11:14;24.40;64.40
24402;DHT22;12539;48.808;11.292;2022-07-22T01:13:41;24.40;64.20
24402;DHT22;12539;48.808;11.292;2022-07-22T01:16:08;24.50;64.10
24402;DHT22;12539;48.808;11.292;2022-07-22T01:18:35;24.50;64.10
24402;DHT22;12539;48.808;11.292;2022-07-22T01:21:01;24.50;64.00
24402;DHT22;12539;48.808;11.292;2022-07-22T01:23:27;24.40;63.90
24402;DHT22;12539;48.808;11.292;2022-07-22T01:25:54;24.30;64.10
24402;DHT22;12539;48.808;11.292;2022-07-22T01:28:21;24.30;64.00
24402;DHT22;12539;48.808;11.292;2022-07-22T01:30:47;24.20;64.00
24402;DHT22;12539;48.808;11.292;2022-07-22T01:33:18;24.10;64.40
24402;DHT22;12539;48.808;11.292;2022-07-22T01:35:44;24.00;64.50
24402;DHT22;12539;48.808;11.292;2022-07-22T01:38:10;24.00;64.40
24402;DHT22;12539;48.808;11.292;2022-07-22T01:40:36;23.90;64.20
24402;DHT22;12539;48.808;11.292;2022-07-22T01:43:02;23.80;64.70
24402;DHT22;12539;48.808;11.292;2022-07-22T01:45:28;23.70;65.10
24402;DHT22;12539;48.808;11.292;2022-07-22T01:47:53;23.70;65.60
24402;DHT22;12539;48.808;11.292;2022-07-22T01:50:19;23.70;65.60
24402;DHT22;12539;48.808;11.292;2022-07-22T01:52:44;23.70;65.40
24402;DHT22;12539;48.808;11.292;2022-07-22T01:55:10;23.70;65.10
24402;DHT22;12539;48.808;11.292;2022-07-22T01:57:38;23.70;64.80
24402;DHT22;12539;48.808;11.292;2022-07-22T02:00:08;23.70;64.60
24402;DHT22;12539;48.808;11.292;2022-07-22T02:02:34;23.70;64.60
24402;DHT22;12539;48.808;11.292;2022-07-22T02:05:01;23.70;64.70
24402;DHT22;12539;48.808;11.292;2022-07-22T02:07:27;23.70;65.00
24402;DHT22;12539;48.808;11.292;2022-07-22T02:09:53;23.70;64.90
24402;DHT22;12539;48.808;11.292;2022-07-22T02:12:19;23.70;64.70
24402;DHT22;12539;48.808;11.292;2022-07-22T02:14:45;23.70;64.70
24402;DHT22;12539;48.808;11.292;2022-07-22T02:17:12;23.70;64.80
24402;DHT22;12539;48.808;11.292;2022-07-22T02:19:38;23.70;64.90
24402;DHT22;12539;48.808;11.292;2022-07-22T02:22:03;23.70;65.10
24402;DHT22;12539;48.808;11.292;2022-07-22T02:24:29;23.60;65.20
24402;DHT22;12539;48.808;11.292;2022-07-22T02:26:55;23.60;65.70
24402;DHT22;12539;48.808;11.292;2022-07-22T02:29:21;23.60;66.20
24402;DHT22;12539;48.808;11.292;2022-07-22T02:31:46;23.60;66.40
24402;DHT22;12539;48.808;11.292;2022-07-22T02:34:12;23.50;66.40
24402;DHT22;12539;48.808;11.292;2022-07-22T02:36:38;23.40;67.30
24402;DHT22;12539;48.808;11.292;2022-07-22T02:39:04;23.40;67.10
24402;DHT22;12539;48.808;11.292;2022-07-22T02:41:29;23.40;67.40
24402;DHT22;12539;48.808;11.292;2022-07-22T02:43:55;23.30;67.20
24402;DHT22;12539;48.808;11.292;2022-07-22T02:46:23;23.40;67.00
24402;DHT22;12539;48.808;11.292;2022-07-22T02:48:49;23.50;67.00
24402;DHT22;12539;48.808;11.292;2022-07-22T02:51:14;23.50;66.80
24402;DHT22;12539;48.808;11.292;2022-07-22T02:53:40;23.50;66.50
24402;DHT22;12539;48.808;11.292;2022-07-22T02:56:06;23.50;66.50
24402;DHT22;12539;48.808;11.292;2022-07-22T02:58:32;23.60;66.60
24402;DHT22;12539;48.808;11.292;2022-07-22T03:00:57;23.60;66.80
24402;DHT22;12539;48.808;11.292;2022-07-22T03:03:23;23.50;67.00
24402;DHT22;12539;48.808;11.292;2022-07-22T03:05:49;23.50;67.30
24402;DHT22;12539;48.808;11.292;2022-07-22T03:08:16;23.50;67.20
24402;DHT22;12539;48.808;11.292;2022-07-22T03:10:41;23.60;66.80
24402;DHT22;12539;48.808;11.292;2022-07-22T03:13:07;23.60;66.20
24402;DHT22;12539;48.808;11.292;2022-07-22T03:15:33;23.60;65.80
24402;DHT22;12539;48.808;11.292;2022-07-22T03:17:58;23.50;65.10
24402;DHT22;12539;48.808;11.292;2022-07-22T03:20:24;23.50;65.20
24402;DHT22;12539;48.808;11.292;2022-07-22T03:22:50;23.40;65.40
24402;DHT22;12539;48.808;11.292;2022-07-22T03:25:16;23.30;66.10
24402;DHT22;12539;48.808;11.292;2022-07-22T03:27:42;23.20;66.60
24402;DHT22;12539;48.808;11.292;2022-07-22T03:30:07;23.20;67.00
24402;DHT22;12539;48.808;11.292;2022-07-22T03:32:33;23.20;66.90
24402;DHT22;12539;48.808;11.292;2022-07-22T03:34:59;23.30;67.10
24402;DHT22;12539;48.808;11.292;2022-07-22T03:37:25;23.30;66.70
24402;DHT22;12539;48.808;11.292;2022-07-22T03:39:50;23.40;66.40
24402;DHT22;12539;48.808;11.292;2022-07-22T03:42:16;23.40;66.10
24402;DHT22;12539;48.808;11.292;2022-07-22T03:44:42;23.40;66.10
24402;DHT22;12539;48.808;11.292;2022-07-22T03:47:07;23.40;66.00
24402;DHT22;12539;48.808;11.292;2022-07-22T03:49:33;23.40;65.90
24402;DHT22;12539;48.808;11.292;2022-07-22T03:51:59;23.40;66.00
24402;DHT22;12539;48.808;11.292;2022-07-22T03:54:24;23.40;66.10
24402;DHT22;12539;48.808;11.292;2022-07-22T03:56:50;23.40;66.10
24402;DHT22;12539;48.808;11.292;2022-07-22T03:59:16;23.30;66.10
24402;DHT22;12539;48.808;11.292;2022-07-22T04:01:42;23.30;66.60
24402;DHT22;12539;48.808;11.292;2022-07-22T04:04:08;23.20;66.90
24402;DHT22;12539;48.808;11.292;2022-07-22T04:06:34;23.20;67.20
24402;DHT22;12539;48.808;11.292;2022-07-22T04:09:44;23.20;67.10
24402;DHT22;12539;48.808;11.292;2022-07-22T04:12:13;23.20;67.10
24402;DHT22;12539;48.808;11.292;2022-07-22T04:14:40;23.20;67.00
24402;DHT22;12539;48.808;11.292;2022-07-22T04:17:05;23.30;67.10
24402;DHT22;12539;48.808;11.292;2022-07-22T04:19:31;23.30;66.90
24402;DHT22;12539;48.808;11.292;2022-07-22T04:21:57;23.40;66.90
24402;DHT22;12539;48.808;11.292;2022-07-22T04:24:23;23.40;66.80
24402;DHT22;12539;48.808;11.292;2022-07-22T04:26:48;23.40;66.70
24402;DHT22;12539;48.808;11.292;2022-07-22T04:29:14;23.50;66.60
24402;DHT22;12539;48.808;11.292;2022-07-22T04:31:40;23.50;66.40
24402;DHT22;12539;48.808;11.292;2022-07-22T04:34:05;23.50;66.10
24402;DHT22;12539;48.808;11.292;2022-07-22T04:36:31;23.60;65.90
24402;DHT22;12539;48.808;11.292;2022-07-22T04:38:57;23.60;65.70
24402;DHT22;12539;48.808;11.292;2022-07-22T04:41:22;23.60;65.90
24402;DHT22;12539;48.808;11.292;2022-07-22T04:43:48;23.50;65.70
24402;DHT22;12539;48.808;11.292;2022-07-22T04:46:14;23.50;66.00
24402;DHT22;12539;48.808;11.292;2022-07-22T04:48:39;23.50;67.00
24402;DHT22;12539;48.808;11.292;2022-07-22T04:51:05;23.50;66.20
24402;DHT22;12539;48.808;11.292;2022-07-22T04:53:31;23.50;66.20
24402;DHT22;12539;48.808;11.292;2022-07-22T04:55:57;23.50;66.30
24402;DHT22;12539;48.808;11.292;2022-07-22T04:58:22;23.60;66.10
24402;DHT22;12539;48.808;11.292;2022-07-22T05:00:48;23.60;65.90
24402;DHT22;12539;48.808;11.292;2022-07-22T05:03:14;23.60;66.00
24402;DHT22;12539;48.808;11.292;2022-07-22T05:05:40;23.60;66.00
24402;DHT22;12539;48.808;11.292;2022-07-22T05:08:06;23.60;66.10
24402;DHT22;12539;48.808;11.292;2022-07-22T05:10:31;23.60;66.00
24402;DHT22;12539;48.808;11.292;2022-07-22T05:12:58;23.60;65.90
24402;DHT22;12539;48.808;11.292;2022-07-22T05:15:24;23.70;66.20
24402;DHT22;12539;48.808;11.292;2022-07-22T05:17:50;23.70;65.90
24402;DHT22;12539;48.808;11.292;2022-07-22T05:20:16;23.70;65.80
24402;DHT22;12539;48.808;11.292;2022-07-22T05:22:42;23.70;65.60
24402;DHT22;12539;48.808;11.292;2022-07-22T05:25:08;23.70;65.70
24402;DHT22;12539;48.808;11.292;2022-07-22T05:27:34;23.70;66.30
24402;DHT22;12539;48.808;11.292;2022-07-22T05:29:59;23.80;66.90
24402;DHT22;12539;48.808;11.292;2022-07-22T05:32:25;24.00;66.20
24402;DHT22;12539;48.808;11.292;2022-07-22T05:34:51;24.30;66.10
24402;DHT22;12539;48.808;11.292;2022-07-22T05:37:17;24.70;64.70
24402;DHT22;12539;48.808;11.292;2022-07-22T05:39:45;25.00;63.70
24402;DHT22;12539;48.808;11.292;2022-07-22T05:42:11;25.50;62.30
24402;DHT22;12539;48.808;11.292;2022-07-22T05:44:36;25.70;61.10
24402;DHT22;12539;48.808;11.292;2022-07-22T05:47:02;25.90;59.90
24402;DHT22;12539;48.808;11.292;2022-07-22T05:49:28;26.10;59.30
24402;DHT22;12539;48.808;11.292;2022-07-22T05:51:53;26.10;58.80
24402;DHT22;12539;48.808;11.292;2022-07-22T05:54:20;26.40;58.40
24402;DHT22;12539;48.808;11.292;2022-07-22T05:56:45;26.80;57.70
24402;DHT22;12539;48.808;11.292;2022-07-22T05:59:11;27.10;56.90
24402;DHT22;12539;48.808;11.292;2022-07-22T06:01:37;27.30;56.50
24402;DHT22;12539;48.808;11.292;2022-07-22T06:04:02;27.70;55.00
24402;DHT22;12539;48.808;11.292;2022-07-22T06:06:28;28.00;54.40
24402;DHT22;12539;48.808;11.292;2022-07-22T06:08:54;28.40;53.20
24402;DHT22;12539;48.808;11.292;2022-07-22T06:11:20;28.90;51.80
24402;DHT22;12539;48.808;11.292;2022-07-22T06:13:46;29.30;50.70
24402;DHT22;12539;48.808;11.292;2022-07-22T06:16:12;29.70;49.90
24402;DHT22;12539;48.808;11.292;2022-07-22T06:18:37;30.40;48.70
24402;DHT22;12539;48.808;11.292;2022-07-22T06:21:04;31.40;47.00
24402;DHT22;12539;48.808;11.292;2022-07-22T06:23:30;32.40;44.80
24402;DHT22;12539;48.808;11.292;2022-07-22T06:25:56;34.20;41.30
24402;DHT22;12539;48.808;11.292;2022-07-22T06:28:21;35.70;38.80
24402;DHT22;12539;48.808;11.292;2022-07-22T06:30:47;37.30;37.10
24402;DHT22;12539;48.808;11.292;2022-07-22T06:33:12;38.60;34.10
24402;DHT22;12539;48.808;11.292;2022-07-22T06:35:39;39.80;32.10
24402;DHT22;12539;48.808;11.292;2022-07-22T06:38:06;40.80;30.00
24402;DHT22;12539;48.808;11.292;2022-07-22T06:40:35;41.40;29.60
24402;DHT22;12539;48.808;11.292;2022-07-22T06:43:00;42.10;28.70
24402;DHT22;12539;48.808;11.292;2022-07-22T06:45:26;42.70;27.70
24402;DHT22;12539;48.808;11.292;2022-07-22T06:47:52;43.00;26.70
24402;DHT22;12539;48.808;11.292;2022-07-22T06:50:18;43.40;26.60
24402;DHT22;12539;48.808;11.292;2022-07-22T06:52:44;44.00;26.20
24402;DHT22;12539;48.808;11.292;2022-07-22T06:55:10;44.50;25.30
24402;DHT22;12539;48.808;11.292;2022-07-22T06:57:35;44.70;25.60
24402;DHT22;12539;48.808;11.292;2022-07-22T07:00:04;44.70;24.70
24402;DHT22;12539;48.808;11.292;2022-07-22T07:02:31;44.80;24.70
24402;DHT22;12539;48.808;11.292;2022-07-22T07:04:56;44.80;24.20
24402;DHT22;12539;48.808;11.292;2022-07-22T07:07:22;44.60;24.30
24402;DHT22;12539;48.808;11.292;2022-07-22T07:09:47;44.00;24.30
24402;DHT22;12539;48.808;11.292;2022-07-22T07:12:13;42.80;25.40
24402;DHT22;12539;48.808;11.292;2022-07-22T07:14:39;41.00;26.90
24402;DHT22;12539;48.808;11.292;2022-07-22T07:17:04;38.90;28.80
24402;DHT22;12539;48.808;11.292;2022-07-22T07:19:31;37.10;31.40
24402;DHT22;12539;48.808;11.292;2022-07-22T07:21:56;35.70;33.50
24402;DHT22;12539;48.808;11.292;2022-07-22T07:24:22;34.80;34.50
24402;DHT22;12539;48.808;11.292;2022-07-22T07:26:48;35.20;34.40
24402;DHT22;12539;48.808;11.292;2022-07-22T07:29:14;35.50;34.50
24402;DHT22;12539;48.808;11.292;2022-07-22T07:31:39;34.80;35.10
24402;DHT22;12539;48.808;11.292;2022-07-22T07:34:05;33.80;36.80
24402;DHT22;12539;48.808;11.292;2022-07-22T07:36:30;33.20;37.90
24402;DHT22;12539;48.808;11.292;2022-07-22T07:38:56;32.70;38.60
24402;DHT22;12539;48.808;11.292;2022-07-22T07:41:22;32.30;39.90
24402;DHT22;12539;48.808;11.292;2022-07-22T07:43:48;32.00;40.20
24402;DHT22;12539;48.808;11.292;2022-07-22T07:46:13;31.60;41.00
24402;DHT22;12539;48.808;11.292;2022-07-22T07:48:39;31.30;42.00
24402;DHT22;12539;48.808;11.292;2022-07-22T07:51:05;31.10;42.50
24402;DHT22;12539;48.808;11.292;2022-07-22T07:53:31;31.00;42.60
24402;DHT22;12539;48.808;11.292;2022-07-22T07:55:57;30.80;43.20
24402;DHT22;12539;48.808;11.292;2022-07-22T07:58:22;30.90;43.30
24402;DHT22;12539;48.808;11.292;2022-07-22T08:00:48;31.00;42.80
24402;DHT22;12539;48.808;11.292;2022-07-22T08:03:14;30.80;43.10
24402;DHT22;12539;48.808;11.292;2022-07-22T08:05:40;30.90;42.90
24402;DHT22;12539;48.808;11.292;2022-07-22T08:08:06;31.10;42.90
24402;DHT22;12539;48.808;11.292;2022-07-22T08:10:33;31.20;42.30
24402;DHT22;12539;48.808;11.292;2022-07-22T08:12:59;31.30;41.90
24402;DHT22;12539;48.808;11.292;2022-07-22T08:15:28;31.30;42.00
24402;DHT22;12539;48.808;11.292;2022-07-22T08:17:55;31.40;41.80
24402;DHT22;12539;48.808;11.292;2022-07-22T08:20:22;31.20;41.30
24402;DHT22;12539;48.808;11.292;2022-07-22T08:22:47;31.10;41.20
24402;DHT22;12539;48.808;11.292;2022-07-22T08:25:13;31.10;42.10
24402;DHT22;12539;48.808;11.292;2022-07-22T08:27:39;31.20;42.70
24402;DHT22;12539;48.808;11.292;2022-07-22T08:30:05;31.30;41.60
24402;DHT22;12539;48.808;11.292;2022-07-22T08:32:32;31.20;41.20
24402;DHT22;12539;48.808;11.292;2022-07-22T08:34:58;31.10;41.90
24402;DHT22;12539;48.808;11.292;2022-07-22T08:37:24;31.30;41.80
24402;DHT22;12539;48.808;11.292;2022-07-22T08:39:50;31.30;41.70
24402;DHT22;12539;48.808;11.292;2022-07-22T08:42:16;31.40;41.30
24402;DHT22;12539;48.808;11.292;2022-07-22T08:44:42;31.50;40.90
24402;DHT22;12539;48.808;11.292;2022-07-22T08:47:07;31.50;40.90
24402;DHT22;12539;48.808;11.292;2022-07-22T08:49:33;31.60;41.50
24402;DHT22;12539;48.808;11.292;2022-07-22T08:51:59;31.80;40.80
24402;DHT22;12539;48.808;11.292;2022-07-22T08:54:24;31.80;39.70
24402;DHT22;12539;48.808;11.292;2022-07-22T08:56:51;31.70;40.30
24402;DHT22;12539;48.808;11.292;2022-07-22T08:59:17;31.70;40.20
24402;DHT22;12539;48.808;11.292;2022-07-22T09:02:05;31.80;40.30
24402;DHT22;12539;48.808;11.292;2022-07-22T09:04:31;32.00;39.50
24402;DHT22;12539;48.808;11.292;2022-07-22T09:06:58;32.00;39.10
24402;DHT22;12539;48.808;11.292;2022-07-22T09:09:33;31.90;39.50
24402;DHT22;12539;48.808;11.292;2022-07-22T09:12:06;32.00;39.80
24402;DHT22;12539;48.808;11.292;2022-07-22T09:14:45;32.10;39.60
24402;DHT22;12539;48.808;11.292;2022-07-22T09:17:24;32.30;39.70
24402;DHT22;12539;48.808;11.292;2022-07-22T09:19:50;32.30;38.90
24402;DHT22;12539;48.808;11.292;2022-07-22T09:22:44;32.30;39.00
24402;DHT22;12539;48.808;11.292;2022-07-22T09:25:24;32.40;39.00
24402;DHT22;12539;48.808;11.292;2022-07-22T09:27:53;32.60;38.40
24402;DHT22;12539;48.808;11.292;2022-07-22T09:30:22;32.50;38.30
24402;DHT22;12539;48.808;11.292;2022-07-22T09:32:49;32.20;38.30
24402;DHT22;12539;48.808;11.292;2022-07-22T09:35:15;32.10;39.30
24402;DHT22;12539;48.808;11.292;2022-07-22T09:37:50;32.30;39.40
24402;DHT22;12539;48.808;11.292;2022-07-22T09:40:19;32.80;38.70
24402;DHT22;12539;48.808;11.292;2022-07-22T09:42:53;32.90;38.60
24402;DHT22;12539;48.808;11.292;2022-07-22T09:45:21;33.10;38.90
24402;DHT22;12539;48.808;11.292;2022-07-22T09:47:47;33.10;37.70
24402;DHT22;12539;48.808;11.292;2022-07-22T09:50:22;33.00;38.00
24402;DHT22;12539;48.808;11.292;2022-07-22T09:52:50;33.10;37.90
24402;DHT22;12539;48.808;11.292;2022-07-22T09:55:17;32.80;38.10
24402;DHT22;12539;48.808;11.292;2022-07-22T09:57:44;32.90;38.60
24402;DHT22;12539;48.808;11.292;2022-07-22T10:00:12;33.00;38.40
24402;DHT22;12539;48.808;11.292;2022-07-22T10:05:13;33.00;38.00
24402;DHT22;12539;48.808;11.292;2022-07-22T10:07:41;33.00;38.40
24402;DHT22;12539;48.808;11.292;2022-07-22T10:10:09;33.00;38.30
24402;DHT22;12539;48.808;11.292;2022-07-22T10:12:37;33.00;37.90
24402;DHT22;12539;48.808;11.292;2022-07-22T10:15:04;33.10;37.50
24402;DHT22;12539;48.808;11.292;2022-07-22T10:17:31;33.00;37.50
24402;DHT22;12539;48.808;11.292;2022-07-22T10:19:58;32.90;37.60
24402;DHT22;12539;48.808;11.292;2022-07-22T10:25:06;32.60;37.70
24402;DHT22;12539;48.808;11.292;2022-07-22T10:27:53;32.60;38.00
24402;DHT22;12539;48.808;11.292;2022-07-22T10:30:28;32.60;38.50
24402;DHT22;12539;48.808;11.292;2022-07-22T10:33:16;32.70;38.60
24402;DHT22;12539;48.808;11.292;2022-07-22T10:38:10;33.00;37.00
24402;DHT22;12539;48.808;11.292;2022-07-22T10:43:25;33.20;36.60
24402;DHT22;12539;48.808;11.292;2022-07-22T10:46:00;33.20;37.00
24402;DHT22;12539;48.808;11.292;2022-07-22T10:51:08;33.30;35.30
24402;DHT22;12539;48.808;11.292;2022-07-22T10:53:44;33.30;35.70
24402;DHT22;12539;48.808;11.292;2022-07-22T10:58:43;33.20;36.20
24402;DHT22;12539;48.808;11.292;2022-07-22T11:01:12;33.20;35.90
24402;DHT22;12539;48.808;11.292;2022-07-22T11:03:40;33.20;35.30
24402;DHT22;12539;48.808;11.292;2022-07-22T11:06:16;33.10;35.70
24402;DHT22;12539;48.808;11.292;2022-07-22T11:08:44;33.20;35.80
24402;DHT22;12539;48.808;11.292;2022-07-22T11:11:10;33.30;35.60
24402;DHT22;12539;48.808;11.292;2022-07-22T11:13:38;33.30;35.40
24402;DHT22;12539;48.808;11.292;2022-07-22T11:16:24;33.40;35.20
24402;DHT22;12539;48.808;11.292;2022-07-22T11:18:52;33.50;35.10
24402;DHT22;12539;48.808;11.292;2022-07-22T11:21:20;33.50;33.70
24402;DHT22;12539;48.808;11.292;2022-07-22T11:23:48;33.50;33.30
24402;DHT22;12539;48.808;11.292;2022-07-22T11:26:16;33.30;32.40
24402;DHT22;12539;48.808;11.292;2022-07-22T11:28:45;33.20;32.10
24402;DHT22;12539;48.808;11.292;2022-07-22T11:31:16;33.20;32.00
24402;DHT22;12539;48.808;11.292;2022-07-22T11:33:43;33.00;32.10
24402;DHT22;12539;48.808;11.292;2022-07-22T11:36:09;33.00;33.00
24402;DHT22;12539;48.808;11.292;2022-07-22T11:38:42;33.10;33.00
24402;DHT22;12539;48.808;11.292;2022-07-22T11:41:08;33.10;33.10
24402;DHT22;12539;48.808;11.292;2022-07-22T11:43:46;33.20;33.70
24402;DHT22;12539;48.808;11.292;2022-07-22T11:46:13;33.30;32.70
24402;DHT22;12539;48.808;11.292;2022-07-22T11:48:40;33.20;32.80
24402;DHT22;12539;48.808;11.292;2022-07-22T11:51:07;33.30;32.90
24402;DHT22;12539;48.808;11.292;2022-07-22T11:53:35;33.40;32.60
24402;DHT22;12539;48.808;11.292;2022-07-22T11:56:03;33.50;32.50
24402;DHT22;12539;48.808;11.292;2022-07-22T12:01:08;33.70;33.30
24402;DHT22;12539;48.808;11.292;2022-07-22T12:03:36;33.60;33.20
24402;DHT22;12539;48.808;11.292;2022-07-22T12:06:04;33.60;32.80
24402;DHT22;12539;48.808;11.292;2022-07-22T12:08:32;33.60;33.00
24402;DHT22;12539;48.808;11.292;2022-07-22T12:10:59;33.60;33.70
24402;DHT22;12539;48.808;11.292;2022-07-22T12:13:32;33.60;33.40
24402;DHT22;12539;48.808;11.292;2022-07-22T12:15:58;33.60;33.10
24402;DHT22;12539;48.808;11.292;2022-07-22T12:18:26;33.60;33.40
24402;DHT22;12539;48.808;11.292;2022-07-22T12:20:54;33.70;33.50
24402;DHT22;12539;48.808;11.292;2022-07-22T12:23:21;33.80;33.70
24402;DHT22;12539;48.808;11.292;2022-07-22T12:26:15;33.80;33.50
24402;DHT22;12539;48.808;11.292;2022-07-22T12:32:57;34.10;34.10
24402;DHT22;12539;48.808;11.292;2022-07-22T12:35:24;34.40;32.70
24402;DHT22;12539;48.808;11.292;2022-07-22T12:37:52;34.50;32.90
24402;DHT22;12539;48.808;11.292;2022-07-22T12:40:20;34.70;32.70
24402;DHT22;12539;48.808;11.292;2022-07-22T12:43:00;34.80;31.80
24402;DHT22;12539;48.808;11.292;2022-07-22T12:45:27;34.80;31.70
24402;DHT22;12539;48.808;11.292;2022-07-22T12:47:54;34.70;31.50
24402;DHT22;12539;48.808;11.292;2022-07-22T12:50:38;34.80;30.20
24402;DHT22;12539;48.808;11.292;2022-07-22T12:53:10;34.50;30.00
24402;DHT22;12539;48.808;11.292;2022-07-22T12:58:07;34.20;31.60
24402;DHT22;12539;48.808;11.292;2022-07-22T13:00:41;34.20;31.50
24402;DHT22;12539;48.808;11.292;2022-07-22T13:03:07;34.20;32.00
24402;DHT22;12539;48.808;11.292;2022-07-22T13:05:33;34.30;32.10
24402;DHT22;12539;48.808;11.292;2022-07-22T13:08:03;34.50;31.20
24402;DHT22;12539;48.808;11.292;2022-07-22T13:10:29;34.60;30.80
24402;DHT22;12539;48.808;11.292;2022-07-22T13:12:55;34.60;30.10
24402;DHT22;12539;48.808;11.292;2022-07-22T13:15:21;34.50;29.50
24402;DHT22;12539;48.808;11.292;2022-07-22T13:17:48;34.40;29.50
24402;DHT22;12539;48.808;11.292;2022-07-22T13:20:15;34.40;31.00
24402;DHT22;12539;48.808;11.292;2022-07-22T13:22:43;34.50;30.70
24402;DHT22;12539;48.808;11.292;2022-07-22T13:25:08;34.60;30.40
24402;DHT22;12539;48.808;11.292;2022-07-22T13:27:37;34.60;31.10
24402;DHT22;12539;48.808;11.292;2022-07-22T13:30:09;34.80;32.00
24402;DHT22;12539;48.808;11.292;2022-07-22T13:32:35;34.90;30.60
24402;DHT22;12539;48.808;11.292;2022-07-22T13:35:00;34.80;30.00
24402;DHT22;12539;48.808;11.292;2022-07-22T13:37:27;34.80;30.20
24402;DHT22;12539;48.808;11.292;2022-07-22T13:39:53;34.80;29.90
24402;DHT22;12539;48.808;11.292;2022-07-22T13:42:19;34.70;29.60
24402;DHT22;12539;48.808;11.292;2022-07-22T13:44:49;34.60;30.00
24402;DHT22;12539;48.808;11.292;2022-07-22T13:47:17;34.70;29.60
24402;DHT22;12539;48.808;11.292;2022-07-22T13:49:43;34.60;29.70
24402;DHT22;12539;48.808;11.292;2022-07-22T13:52:10;34.70;29.40
24402;DHT22;12539;48.808;11.292;2022-07-22T13:54:36;34.70;29.60
24402;DHT22;12539;48.808;11.292;2022-07-22T13:57:03;34.60;28.90
24402;DHT22;12539;48.808;11.292;2022-07-22T13:59:29;34.60;29.10
24402;DHT22;12539;48.808;11.292;2022-07-22T14:01:56;34.50;29.20
24402;DHT22;12539;48.808;11.292;2022-07-22T14:04:22;34.50;29.40
24402;DHT22;12539;48.808;11.292;2022-07-22T14:06:48;34.50;29.10
24402;DHT22;12539;48.808;11.292;2022-07-22T14:09:14;34.60;29.20
24402;DHT22;12539;48.808;11.292;2022-07-22T14:11:39;34.60;28.90
24402;DHT22;12539;48.808;11.292;2022-07-22T14:14:05;34.60;29.00
24402;DHT22;12539;48.808;11.292;2022-07-22T14:16:32;34.60;28.40
24402;DHT22;12539;48.808;11.292;2022-07-22T14:19:13;34.50;28.60
24402;DHT22;12539;48.808;11.292;2022-07-22T14:21:41;34.50;28.70
24402;DHT22;12539;48.808;11.292;2022-07-22T14:24:08;34.60;28.80
24402;DHT22;12539;48.808;11.292;2022-07-22T14:26:35;34.60;28.30
24402;DHT22;12539;48.808;11.292;2022-07-22T14:29:01;34.50;28.30
24402;DHT22;12539;48.808;11.292;2022-07-22T14:31:27;34.50;28.90
24402;DHT22;12539;48.808;11.292;2022-07-22T14:33:54;34.60;29.10
24402;DHT22;12539;48.808;11.292;2022-07-22T14:36:20;34.70;29.30
24402;DHT22;12539;48.808;11.292;2022-07-22T14:38:46;34.70;28.90
24402;DHT22;12539;48.808;11.292;2022-07-22T14:41:12;34.70;28.90
24402;DHT22;12539;48.808;11.292;2022-07-22T14:43:38;34.80;28.60
24402;DHT22;12539;48.808;11.292;2022-07-22T14:46:04;34.80;28.50
24402;DHT22;12539;48.808;11.292;2022-07-22T14:48:33;34.80;29.00
24402;DHT22;12539;48.808;11.292;2022-07-22T14:50:59;34.90;29.20
24402;DHT22;12539;48.808;11.292;2022-07-22T14:53:24;34.90;28.40
24402;DHT22;12539;48.808;11.292;2022-07-22T14:55:50;34.70;28.30
24402;DHT22;12539;48.808;11.292;2022-07-22T14:58:16;34.50;28.20
24402;DHT22;12539;48.808;11.292;2022-07-22T15:00:43;34.40;27.90
24402;DHT22;12539;48.808;11.292;2022-07-22T15:03:09;34.30;28.10
24402;DHT22;12539;48.808;11.292;2022-07-22T15:05:34;34.20;28.10
24402;DHT22;12539;48.808;11.292;2022-07-22T15:08:00;34.10;28.90
24402;DHT22;12539;48.808;11.292;2022-07-22T15:10:26;34.10;29.00
24402;DHT22;12539;48.808;11.292;2022-07-22T15:12:51;34.20;29.20
24402;DHT22;12539;48.808;11.292;2022-07-22T15:15:17;34.10;28.90
24402;DHT22;12539;48.808;11.292;2022-07-22T15:17:43;34.10;29.20
24402;DHT22;12539;48.808;11.292;2022-07-22T15:20:11;34.00;29.10
24402;DHT22;12539;48.808;11.292;2022-07-22T15:22:37;33.90;28.30
24402;DHT22;12539;48.808;11.292;2022-07-22T15:25:03;33.80;28.60
24402;DHT22;12539;48.808;11.292;2022-07-22T15:27:29;33.80;28.90
24402;DHT22;12539;48.808;11.292;2022-07-22T15:29:55;33.80;28.10
24402;DHT22;12539;48.808;11.292;2022-07-22T15:32:21;33.90;28.00
24402;DHT22;12539;48.808;11.292;2022-07-22T15:34:49;34.00;28.70
24402;DHT22;12539;48.808;11.292;2022-07-22T15:37:15;33.90;28.90
24402;DHT22;12539;48.808;11.292;2022-07-22T15:39:43;33.80;29.10